createdAt,value
2023-01-02T00:01:52.545Z,100921.95
2023-01-02T00:04:20.300Z,100923.83
2023-01-02T00:06:47.960Z,100923.10
2023-01-02T00:09:15.853Z,100920.29
2023-01-02T00:11:43.555Z,100915.23
2023-01-02T00:14:11.378Z,100910.40
2023-01-02T00:16:39.088Z,100905.56
2023-01-02T00:19:08.807Z,100903.22
2023-01-02T00:21:37.487Z,100903.05
2023-01-02T00:24:05.391Z,100904.67
2023-01-02T00:26:33.234Z,100903.03
2023-01-02T00:29:01.828Z,100901.77
2023-01-02T00:31:29.503Z,100899.99
2023-01-02T00:33:57.384Z,100903.06
2023-01-02T00:36:26.523Z,100902.92
2023-01-02T00:38:56.919Z,100908.86
2023-01-02T00:41:24.731Z,100911.75
2023-01-02T00:43:52.368Z,100913.85
2023-01-02T00:46:20.021Z,100918.20
2023-01-02T00:48:47.866Z,100916.77
2023-01-02T00:51:15.566Z,100915.75
2023-01-02T00:53:43.246Z,100919.66
2023-01-02T00:56:11.755Z,100913.98
2023-01-02T00:58:39.600Z,100915.95
2023-01-02T01:01:07.227Z,100918.33
2023-01-02T01:03:35.033Z,100916.00
2023-01-02T01:06:07.481Z,100923.56
2023-01-02T01:08:36.909Z,100926.45
2023-01-02T01:11:13.153Z,100928.21
2023-01-02T01:13:41.542Z,100925.16
2023-01-02T01:16:12.712Z,100924.44
2023-01-02T01:18:40.723Z,100923.23
2023-01-02T01:21:12.470Z,100926.21
2023-01-02T01:23:40.255Z,100927.32
2023-01-02T01:26:10.981Z,100923.64
2023-01-02T01:28:40.547Z,100921.94
2023-01-02T01:31:14.669Z,100911.40
2023-01-02T01:33:43.991Z,100908.35
2023-01-02T01:36:14.419Z,100900.70
2023-01-02T01:38:42.652Z,100898.35
2023-01-02T01:41:12.419Z,100892.46
2023-01-02T01:43:54.712Z,100882.31
2023-01-02T01:46:43.963Z,100882.98
2023-01-02T01:49:14.297Z,100882.15
2023-01-02T01:52:04.034Z,100881.48
2023-01-02T01:54:37.657Z,100884.57
2023-01-02T01:57:15.321Z,100874.73
2023-01-02T01:59:43.659Z,100867.42
2023-01-02T02:02:12.098Z,100861.14
2023-01-02T02:04:42.429Z,100857.80
2023-01-02T02:07:10.363Z,100853.86
2023-01-02T02:09:47.282Z,100850.38
2023-01-02T02:12:19.006Z,100850.50
2023-01-02T02:14:48.367Z,100853.89
2023-01-02T02:17:31.199Z,100851.04
2023-01-02T02:20:24.707Z,100850.80
2023-01-02T02:23:26.837Z,100842.61
2023-01-02T02:26:16.507Z,100839.17
2023-01-02T02:29:19.372Z,100845.71
2023-01-02T02:32:11.569Z,100849.48
2023-01-02T02:34:52.492Z,100843.81
2023-01-02T02:37:32.097Z,100842.63
2023-01-02T02:40:08.997Z,100841.59
2023-01-02T02:43:13.179Z,100837.71
2023-01-02T02:45:55.238Z,100842.64
2023-01-02T02:48:41.660Z,100853.73
2023-01-02T02:51:32.937Z,100863.62
2023-01-02T02:54:08.566Z,100868.42
2023-01-02T02:56:36.741Z,100861.77
2023-01-02T02:59:05.062Z,100862.95
2023-01-02T03:01:32.792Z,100871.97
2023-01-02T03:04:00.482Z,100861.73
2023-01-02T03:09:49.912Z,100863.88
2023-01-02T03:12:45.771Z,100865.05
2023-01-02T03:15:21.113Z,100866.41
2023-01-02T03:17:53.141Z,100865.46
2023-01-02T03:20:25.836Z,100868.96
2023-01-02T03:22:59.600Z,100869.65
2023-01-02T03:25:27.489Z,100868.39
2023-01-02T03:27:58.251Z,100871.32
2023-01-02T03:30:26.076Z,100868.37
2023-01-02T03:33:00.053Z,100866.88
2023-01-02T03:35:33.766Z,100871.49
2023-01-02T03:38:05.712Z,100871.13
2023-01-02T03:40:39.629Z,100867.77
2023-01-02T03:43:14.354Z,100861.80
2023-01-02T03:45:56.814Z,100854.11
2023-01-02T03:48:27.645Z,100855.98
2023-01-02T03:50:59.164Z,100856.11
2023-01-02T03:53:28.029Z,100858.00
2023-01-02T03:56:24.937Z,100860.11
2023-01-02T03:59:14.415Z,100862.27
2023-01-02T04:01:49.671Z,100870.16
2023-01-02T04:10:30.105Z,100858.92
2023-01-02T04:13:03.943Z,100868.30
2023-01-02T04:15:34.207Z,100863.60
2023-01-02T04:18:19.518Z,100858.31
2023-01-02T04:20:51.646Z,100857.92
2023-01-02T04:23:24.928Z,100863.16
2023-01-02T04:26:06.761Z,100865.82
2023-01-02T04:28:35.000Z,100867.92
2023-01-02T04:31:11.545Z,100877.24
2023-01-02T04:33:49.923Z,100882.89
2023-01-02T04:36:18.222Z,100881.62
2023-01-02T04:38:46.245Z,100882.94
2023-01-02T04:41:26.783Z,100884.16
2023-01-02T04:43:59.071Z,100887.08
2023-01-02T04:46:29.091Z,100885.31
2023-01-02T04:48:57.356Z,100883.04
2023-01-02T04:51:25.491Z,100880.55
2023-01-02T04:53:53.704Z,100879.56
2023-01-02T04:56:21.854Z,100876.52
2023-01-02T04:58:50.505Z,100874.46
2023-01-02T05:01:20.906Z,100867.45
2023-01-02T05:03:52.666Z,100857.20
2023-01-02T05:06:20.760Z,100848.13
2023-01-02T05:08:48.442Z,100841.61
2023-01-02T05:11:19.613Z,100841.36
2023-01-02T05:13:47.422Z,100835.59
2023-01-02T05:16:15.314Z,100834.61
2023-01-02T05:18:43.294Z,100819.32
2023-01-02T05:21:31.736Z,100804.57
2023-01-02T05:24:02.450Z,100812.80
2023-01-02T05:26:32.771Z,100816.63
2023-01-02T05:29:01.098Z,100813.64
2023-01-02T05:31:29.269Z,100813.34
2023-01-02T05:33:59.096Z,100806.36
2023-01-02T05:36:27.651Z,100790.89
2023-01-02T05:38:55.522Z,100782.93
2023-01-02T05:41:23.767Z,100784.92
2023-01-02T05:43:52.032Z,100782.65
2023-01-02T05:46:21.445Z,100781.90
2023-01-02T05:48:49.178Z,100785.02
2023-01-02T05:51:17.579Z,100786.69
2023-01-02T05:53:45.489Z,100785.85
2023-01-02T05:56:15.719Z,100783.18
2023-01-02T05:58:45.747Z,100781.96
2023-01-02T06:01:19.332Z,100783.08
2023-01-02T06:03:48.812Z,100781.02
2023-01-02T06:19:54.424Z,100779.55
2023-01-02T06:22:22.156Z,100782.25
2023-01-02T06:24:49.783Z,100776.89
2023-01-02T06:27:17.601Z,100777.73
2023-01-02T06:29:45.197Z,100776.98
2023-01-02T06:32:12.987Z,100776.73
2023-01-02T06:34:40.782Z,100777.70
2023-01-02T06:37:10.289Z,100777.68
2023-01-02T06:39:38.335Z,100774.35
2023-01-02T06:42:06.286Z,100777.84
2023-01-02T06:44:34.616Z,100781.65
2023-01-02T06:47:02.257Z,100788.67
2023-01-02T06:49:29.917Z,100790.86
2023-01-02T06:51:57.613Z,100787.27
2023-01-02T06:54:25.250Z,100782.30
2023-01-02T06:56:52.950Z,100786.08
2023-01-02T06:59:20.625Z,100785.02
2023-01-02T07:01:48.465Z,100778.27
2023-01-02T07:04:16.778Z,100776.76
2023-01-02T07:06:44.434Z,100779.86
2023-01-02T07:09:12.101Z,100773.55
2023-01-02T07:11:39.733Z,100773.86
2023-01-02T07:14:07.372Z,100764.40
2023-01-02T07:16:35.487Z,100770.39
2023-01-02T07:19:03.485Z,100775.64
2023-01-02T07:21:31.129Z,100788.69
2023-01-02T07:23:58.826Z,100776.90
2023-01-02T07:26:26.492Z,100771.52
2023-01-02T07:28:54.088Z,100765.61
2023-01-02T07:31:22.620Z,100761.90
2023-01-02T07:33:50.503Z,100751.42
2023-01-02T07:36:19.406Z,100743.84
2023-01-02T07:38:50.661Z,100738.94
2023-01-02T07:41:21.952Z,100735.16
2023-01-02T07:43:50.397Z,100728.51
2023-01-02T07:46:19.763Z,100723.72
2023-01-02T07:48:47.749Z,100726.81
2023-01-02T07:51:19.704Z,100721.93
2023-01-02T08:08:39.501Z,100730.77
2023-01-02T08:11:13.508Z,100732.13
2023-01-02T08:13:41.538Z,100732.43
2023-01-02T08:16:12.887Z,100735.97
2023-01-02T08:18:40.601Z,100739.13
2023-01-02T08:21:09.091Z,100736.30
2023-01-02T08:23:37.432Z,100735.42
2023-01-02T08:26:07.739Z,100738.52
2023-01-02T08:28:36.498Z,100736.19
2023-01-02T08:31:19.345Z,100736.45
2023-01-02T08:33:47.124Z,100737.96
2023-01-02T08:36:16.045Z,100744.84
2023-01-02T08:38:44.095Z,100746.56
2023-01-02T08:41:11.783Z,100744.42
2023-01-02T08:43:39.636Z,100738.38
2023-01-02T08:46:09.916Z,100737.65
2023-01-02T08:48:37.685Z,100734.13
2023-01-02T08:51:05.884Z,100726.74
2023-01-02T08:53:33.883Z,100725.89
2023-01-02T08:56:38.155Z,100724.30
2023-01-02T08:59:08.489Z,100723.81
2023-01-02T09:01:37.339Z,100718.16
2023-01-02T09:04:11.858Z,100718.34
2023-01-02T09:06:41.433Z,100719.29
2023-01-02T09:09:12.517Z,100720.74
2023-01-02T09:11:51.900Z,100724.94
2023-01-02T09:14:21.624Z,100712.88
2023-01-02T09:16:50.719Z,100715.52
2023-01-02T09:19:19.086Z,100719.63
2023-01-02T09:21:47.386Z,100715.96
2023-01-02T09:24:15.142Z,100714.66
2023-01-02T09:26:43.004Z,100710.77
2023-01-02T09:29:12.118Z,100716.89
2023-01-02T09:31:40.607Z,100714.77
2023-01-02T09:34:08.675Z,100712.92
2023-01-02T09:36:36.378Z,100709.89
2023-01-02T09:39:04.762Z,100712.04
2023-01-02T09:41:42.354Z,100703.38
2023-01-02T09:44:27.136Z,100703.94
2023-01-02T09:47:03.905Z,100698.02
2023-01-02T09:49:43.170Z,100697.89
2023-01-02T09:52:18.826Z,100692.89
2023-01-02T09:54:46.561Z,100687.75
2023-01-02T09:57:29.444Z,100681.42
2023-01-02T10:00:06.091Z,100682.66
2023-01-02T10:02:47.466Z,100679.91
2023-01-02T10:05:28.115Z,100676.23
2023-01-02T10:08:27.812Z,100677.69
2023-01-02T10:11:40.840Z,100673.33
2023-01-02T10:14:27.972Z,100667.80
2023-01-02T10:17:03.300Z,100656.59
2023-01-02T10:19:55.611Z,100658.94
2023-01-02T10:22:33.436Z,100656.77
2023-01-02T10:25:18.969Z,100653.89
2023-01-02T10:27:53.643Z,100653.30
2023-01-02T10:30:26.812Z,100651.82
2023-01-02T10:33:02.803Z,100651.36
2023-01-02T10:35:40.393Z,100651.21
2023-01-02T10:38:13.031Z,100650.55
2023-01-02T10:40:46.965Z,100649.71
2023-01-02T10:43:15.627Z,100645.30
2023-01-02T10:45:43.842Z,100639.84
2023-01-02T10:48:12.439Z,100639.44
2023-01-02T10:50:43.180Z,100640.79
2023-01-02T10:53:20.279Z,100638.20
2023-01-02T10:55:48.288Z,100641.23
2023-01-02T10:58:26.719Z,100634.04
2023-01-02T11:01:13.808Z,100629.95
2023-01-02T11:03:41.693Z,100619.41
2023-01-02T11:06:48.947Z,100618.64
2023-01-02T11:09:24.035Z,100607.29
2023-01-02T11:11:57.995Z,100612.86
2023-01-02T11:14:34.405Z,100609.08
2023-01-02T11:17:09.836Z,100613.27
2023-01-02T11:19:50.418Z,100618.77
2023-01-02T11:22:21.282Z,100616.83
2023-01-02T11:24:59.856Z,100619.31
2023-01-02T11:27:43.359Z,100619.70
2023-01-02T11:30:48.231Z,100620.87
2023-01-02T11:33:30.046Z,100618.27
2023-01-02T11:36:04.816Z,100618.75
2023-01-02T11:38:50.939Z,100609.59
2023-01-02T11:41:46.357Z,100609.05
2023-01-02T11:44:28.922Z,100613.30
2023-01-02T11:46:58.388Z,100605.30
2023-01-02T11:49:39.967Z,100598.30
2023-01-02T11:52:14.730Z,100596.08
2023-01-02T11:54:49.635Z,100594.31
2023-01-02T11:57:40.680Z,100596.05
2023-01-02T12:00:13.444Z,100594.74
2023-01-02T12:02:51.127Z,100586.17
2023-01-02T12:05:32.856Z,100585.84
2023-01-02T12:08:12.219Z,100581.88
2023-01-02T12:10:57.712Z,100571.27
2023-01-02T12:13:57.547Z,100570.49
2023-01-02T12:16:34.371Z,100566.52
2023-01-02T12:19:10.996Z,100569.25
2023-01-02T12:21:59.107Z,100577.38
2023-01-02T12:24:57.717Z,100577.86
2023-01-02T12:27:25.346Z,100581.27
2023-01-02T12:30:11.926Z,100576.14
2023-01-02T12:33:10.443Z,100573.59
2023-01-02T12:36:11.303Z,100571.41
2023-01-02T12:38:57.929Z,100570.24
2023-01-02T12:42:01.000Z,100563.79
2023-01-02T12:44:50.642Z,100561.73
2023-01-02T12:47:53.866Z,100559.69
2023-01-02T12:50:36.775Z,100549.75
2023-01-02T12:53:20.648Z,100548.80
2023-01-02T12:56:17.383Z,100544.81
2023-01-02T12:59:09.718Z,100540.83
2023-01-02T13:01:48.057Z,100540.50
2023-01-02T13:04:28.477Z,100544.15
2023-01-02T13:07:13.885Z,100541.20
2023-01-02T13:09:43.650Z,100530.52
2023-01-02T13:12:22.106Z,100530.00
2023-01-02T13:14:54.152Z,100526.18
2023-01-02T13:17:46.890Z,100521.33
2023-01-02T13:20:51.001Z,100529.34
2023-01-02T13:23:51.861Z,100531.06
2023-01-02T13:26:23.563Z,100533.62
2023-01-02T13:29:03.770Z,100535.80
2023-01-02T13:31:46.533Z,100535.31
2023-01-02T13:34:22.183Z,100533.74
2023-01-02T13:36:57.080Z,100533.05
2023-01-02T13:39:46.688Z,100535.64
2023-01-02T13:42:50.518Z,100530.77
2023-01-02T13:45:24.629Z,100518.28
2023-01-02T13:47:56.628Z,100519.23
2023-01-02T13:50:30.180Z,100515.71
2023-01-02T13:53:07.753Z,100522.07
2023-01-02T13:55:57.118Z,100525.10
2023-01-02T13:58:37.173Z,100522.80
2023-01-02T14:01:26.087Z,100524.06
2023-01-02T14:04:19.799Z,100518.86
2023-01-02T14:06:54.087Z,100522.59
2023-01-02T14:09:23.885Z,100527.06
2023-01-02T14:11:58.664Z,100527.38
2023-01-02T14:14:33.335Z,100521.07
2023-01-02T14:17:37.008Z,100517.05
2023-01-02T14:20:24.357Z,100516.59
2023-01-02T14:22:56.239Z,100510.85
2023-01-02T14:25:24.836Z,100511.08
2023-01-02T14:27:54.341Z,100512.19
2023-01-02T14:30:42.278Z,100506.36
2023-01-02T14:33:21.657Z,100498.13
2023-01-02T14:35:52.774Z,100500.60
2023-01-02T14:38:26.380Z,100504.62
2023-01-02T14:41:14.493Z,100506.92
2023-01-02T14:43:44.254Z,100507.71
2023-01-02T14:46:23.445Z,100499.10
2023-01-02T14:48:56.056Z,100494.46
2023-01-02T14:51:38.130Z,100489.53
2023-01-02T14:54:20.543Z,100486.66
2023-01-02T14:56:53.556Z,100491.57
2023-01-02T14:59:34.978Z,100496.80
2023-01-02T15:02:07.097Z,100498.23
2023-01-02T15:04:41.059Z,100491.99
2023-01-02T15:07:19.300Z,100493.58
2023-01-02T15:09:51.997Z,100500.19
2023-01-02T15:12:47.388Z,100510.87
2023-01-02T15:15:19.050Z,100510.85
2023-01-02T15:17:48.716Z,100508.48
2023-01-02T15:20:20.531Z,100501.35
2023-01-02T15:22:48.880Z,100499.50
2023-01-02T15:25:31.583Z,100496.91
2023-01-02T15:27:59.294Z,100505.99
2023-01-02T15:30:28.476Z,100514.17
2023-01-02T15:32:56.202Z,100516.04
2023-01-02T15:35:28.336Z,100517.42
2023-01-02T15:37:56.572Z,100522.41
2023-01-02T15:40:24.122Z,100525.45
2023-01-02T15:43:12.674Z,100526.85
2023-01-02T15:45:44.449Z,100532.16
2023-01-02T15:48:14.127Z,100529.05
2023-01-02T15:50:42.716Z,100536.14
2023-01-02T15:53:41.179Z,100536.73
2023-01-02T15:56:32.475Z,100535.37
2023-01-02T15:59:00.655Z,100534.30
2023-01-02T16:01:28.699Z,100533.95
2023-01-02T16:04:07.744Z,100528.95
2023-01-02T16:06:42.848Z,100524.50
2023-01-02T16:09:25.270Z,100529.33
2023-01-02T16:11:59.538Z,100525.75
2023-01-02T16:14:36.725Z,100516.33
2023-01-02T16:17:22.662Z,100513.89
2023-01-02T16:20:00.205Z,100511.98
2023-01-02T16:22:55.365Z,100510.30
2023-01-02T16:25:32.121Z,100516.10
2023-01-02T16:28:34.991Z,100520.38
2023-01-02T16:31:13.559Z,100529.73
2023-01-02T16:33:42.485Z,100524.77
2023-01-02T16:36:13.114Z,100512.74
2023-01-02T16:38:49.934Z,100505.61
2023-01-02T16:41:34.077Z,100508.91
2023-01-02T16:44:12.331Z,100513.20
2023-01-02T16:46:41.264Z,100515.45
2023-01-02T16:49:14.184Z,100506.73
2023-01-02T16:51:45.127Z,100497.55
2023-01-02T16:54:14.149Z,100493.92
2023-01-02T16:56:41.798Z,100485.90
2023-01-02T16:59:09.878Z,100485.17
2023-01-02T17:01:37.977Z,100488.76
2023-01-02T17:04:06.117Z,100511.50
2023-01-02T17:06:34.001Z,100521.21
2023-01-02T17:09:01.896Z,100512.20
2023-01-02T17:11:29.797Z,100514.98
2023-01-02T17:13:57.466Z,100521.86
2023-01-02T17:16:25.226Z,100519.02
2023-01-02T17:18:53.034Z,100514.73
2023-01-02T17:21:20.782Z,100508.27
2023-01-02T17:23:48.403Z,100495.05
2023-01-02T17:26:16.075Z,100488.10
2023-01-02T17:28:43.676Z,100491.30
2023-01-02T17:31:14.241Z,100501.92
2023-01-02T17:33:41.999Z,100501.77
2023-01-02T17:36:09.730Z,100488.05
2023-01-02T17:38:37.369Z,100482.27
2023-01-02T17:41:05.185Z,100476.38
2023-01-02T17:43:33.711Z,100478.61
2023-01-02T17:46:38.688Z,100485.60
2023-01-02T17:48:56.041Z,100492.90
2023-01-02T17:51:23.807Z,100510.48
2023-01-02T17:53:53.183Z,100508.04
2023-01-02T17:56:22.936Z,100497.70
2023-01-02T17:58:51.392Z,100495.73
2023-01-02T18:01:20.867Z,100498.61
2023-01-02T18:03:48.881Z,100501.42
2023-01-02T18:06:17.181Z,100499.89
2023-01-02T18:08:45.167Z,100499.70
2023-01-02T18:11:15.858Z,100501.84
2023-01-02T18:13:48.959Z,100505.88
2023-01-02T18:16:21.218Z,100503.34
2023-01-02T18:18:50.581Z,100499.79
2023-01-02T18:21:22.084Z,100496.04
2023-01-02T18:23:54.710Z,100501.34
2023-01-02T18:26:24.375Z,100502.46
2023-01-02T18:29:05.640Z,100501.59
2023-01-02T18:31:42.564Z,100503.16
2023-01-02T18:34:46.591Z,100509.77
2023-01-02T18:37:29.633Z,100503.36
2023-01-02T18:40:00.619Z,100505.21
2023-01-02T18:42:33.497Z,100499.13
2023-01-02T18:45:01.318Z,100490.39
2023-01-02T18:47:32.767Z,100493.05
2023-01-02T18:50:09.369Z,100492.79
2023-01-02T18:52:38.807Z,100494.20
2023-01-02T18:55:22.398Z,100486.45
2023-01-02T19:00:38.683Z,100484.02
2023-01-02T19:03:10.770Z,100472.23
2023-01-02T19:05:39.952Z,100470.11
2023-01-02T19:08:18.660Z,100470.69
2023-01-02T19:10:50.635Z,100462.34
2023-01-02T19:13:26.137Z,100460.47
2023-01-02T19:15:58.219Z,100462.88
2023-01-02T19:18:43.163Z,100464.02
2023-01-02T19:21:26.665Z,100470.30
2023-01-02T19:24:01.397Z,100479.20
2023-01-02T19:26:38.139Z,100482.47
2023-01-02T19:29:11.249Z,100488.74
2023-01-02T19:32:01.844Z,100486.08
2023-01-02T19:34:47.694Z,100488.94
2023-01-02T19:37:32.335Z,100483.96
2023-01-02T19:40:04.083Z,100484.45
2023-01-02T19:42:31.313Z,100481.34
2023-01-02T19:45:08.569Z,100485.93
2023-01-02T19:47:37.477Z,100491.93
2023-01-02T19:50:07.434Z,100488.80
2023-01-02T19:52:34.103Z,100499.23
2023-01-02T19:55:00.560Z,100495.94
2023-01-02T19:57:26.952Z,100498.48
2023-01-02T19:59:58.252Z,100499.50
2023-01-02T20:02:25.897Z,100496.52
2023-01-02T20:04:54.600Z,100498.36
2023-01-02T20:07:23.424Z,100510.81
2023-01-02T20:09:50.051Z,100512.67
2023-01-02T20:12:39.575Z,100511.04
2023-01-02T20:15:11.862Z,100507.09
2023-01-02T20:17:38.861Z,100510.57
2023-01-02T20:20:08.064Z,100518.16
2023-01-02T20:22:34.902Z,100519.91
2023-01-02T20:25:01.710Z,100512.63
2023-01-02T20:27:28.104Z,100509.77
2023-01-02T20:29:54.562Z,100518.28
2023-01-02T20:32:23.363Z,100519.71
2023-01-02T20:34:50.509Z,100528.20
2023-01-02T20:37:20.367Z,100528.75
2023-01-02T20:39:49.135Z,100532.73
2023-01-02T20:42:19.902Z,100531.92
2023-01-02T20:44:46.657Z,100523.77
2023-01-02T20:47:13.212Z,100524.28
2023-01-02T20:49:39.949Z,100523.65
2023-01-02T20:52:07.118Z,100521.83
2023-01-02T20:54:33.939Z,100509.10
2023-01-02T20:57:00.528Z,100510.83
2023-01-02T20:59:27.087Z,100518.90
2023-01-02T21:01:53.610Z,100526.02
2023-01-02T21:04:22.692Z,100531.98
2023-01-02T21:06:55.574Z,100533.62
2023-01-02T21:09:22.128Z,100535.14
2023-01-02T21:11:48.511Z,100540.73
2023-01-02T21:14:14.759Z,100544.86
2023-01-02T21:16:41.052Z,100547.14
2023-01-02T21:19:07.622Z,100544.08
2023-01-02T21:21:34.083Z,100540.05
2023-01-02T21:24:00.877Z,100542.05
2023-01-02T21:26:27.254Z,100539.15
2023-01-02T21:28:53.542Z,100534.45
2023-01-02T21:31:20.533Z,100534.17
2023-01-02T21:33:47.175Z,100532.09
2023-01-02T21:36:14.898Z,100531.27
2023-01-02T21:38:41.793Z,100533.29
2023-01-02T21:41:28.327Z,100534.91
2023-01-02T21:43:54.697Z,100538.06
2023-01-02T21:46:21.217Z,100537.97
2023-01-02T21:48:47.747Z,100536.81
2023-01-02T21:51:14.073Z,100538.34
2023-01-02T21:53:40.423Z,100543.20
2023-01-02T21:56:07.098Z,100548.84
2023-01-02T21:58:33.419Z,100542.90
2023-01-02T22:00:59.838Z,100534.36
2023-01-02T22:03:26.234Z,100536.05
2023-01-02T22:05:53.110Z,100537.65
2023-01-02T22:08:19.652Z,100543.66
2023-01-02T22:10:47.978Z,100542.86
2023-01-02T22:13:14.546Z,100546.63
2023-01-02T22:15:40.875Z,100547.27
2023-01-02T22:18:07.309Z,100541.11
2023-01-02T22:20:33.980Z,100541.35
2023-01-02T22:23:00.315Z,100551.48
2023-01-02T22:25:26.812Z,100548.08
2023-01-02T22:27:53.114Z,100557.58
2023-01-02T22:30:23.364Z,100554.36
2023-01-02T22:32:53.400Z,100557.77
2023-01-02T22:35:19.790Z,100562.77
2023-01-02T22:37:46.085Z,100565.88
2023-01-02T22:40:12.674Z,100567.21
2023-01-02T22:43:01.089Z,100566.38
2023-01-02T22:45:32.272Z,100569.21
2023-01-02T22:48:02.877Z,100574.11
2023-01-02T22:50:35.622Z,100576.11
2023-01-02T22:53:09.271Z,100569.81
2023-01-02T22:55:35.582Z,100574.16
2023-01-02T22:58:01.837Z,100572.06
2023-01-02T23:00:28.083Z,100573.95
2023-01-02T23:02:56.548Z,100575.90
2023-01-02T23:05:22.959Z,100580.42
2023-01-02T23:07:49.725Z,100580.13
2023-01-02T23:10:16.806Z,100581.49
2023-01-02T23:12:43.533Z,100582.41
2023-01-02T23:15:12.348Z,100583.20
2023-01-02T23:17:57.850Z,100587.05
2023-01-02T23:20:25.360Z,100580.25
2023-01-02T23:22:51.613Z,100584.80
2023-01-02T23:25:18.869Z,100584.91
2023-01-02T23:27:45.132Z,100587.65
2023-01-02T23:30:11.824Z,100588.67
2023-01-02T23:32:38.139Z,100590.14
2023-01-02T23:35:05.428Z,100589.95
2023-01-02T23:37:31.717Z,100592.73
2023-01-02T23:39:58.100Z,100590.86
2023-01-02T23:42:24.422Z,100595.14
2023-01-02T23:44:50.856Z,100588.67
2023-01-02T23:47:19.322Z,100584.51
2023-01-02T23:49:45.841Z,100585.11
2023-01-02T23:52:12.092Z,100595.34
2023-01-02T23:54:38.467Z,100595.23
2023-01-02T23:57:04.791Z,100589.58
2023-01-02T23:59:31.056Z,100590.07
